createdAt,value
2018-07-02T00:01:42.440Z,100152.18
2018-07-02T00:03:47.667Z,100149.80
2018-07-02T00:06:09.774Z,100150.89
2018-07-02T00:08:15.104Z,100146.81
2018-07-02T00:10:20.459Z,100140.75
2018-07-02T00:12:26.074Z,100147.34
2018-07-02T00:14:31.610Z,100143.23
2018-07-02T00:16:36.948Z,100140.97
2018-07-02T00:18:42.266Z,100136.53
2018-07-02T00:20:47.549Z,100135.11
2018-07-02T00:22:52.860Z,100136.34
2018-07-02T00:24:58.167Z,100134.44
2018-07-02T00:27:03.427Z,100135.69
2018-07-02T00:29:08.754Z,100139.45
2018-07-02T00:31:14.059Z,100139.73
2018-07-02T00:33:19.424Z,100142.16
2018-07-02T00:35:24.690Z,100129.59
2018-07-02T00:37:30.010Z,100134.06
2018-07-02T00:39:35.327Z,100134.19
2018-07-02T00:41:41.211Z,100134.95
2018-07-02T00:43:46.503Z,100135.23
2018-07-02T00:45:51.775Z,100128.12
2018-07-02T00:47:57.129Z,100127.30
2018-07-02T00:50:02.463Z,100127.55
2018-07-02T00:52:07.926Z,100129.03
2018-07-02T00:54:13.359Z,100130.25
2018-07-02T00:56:18.652Z,100130.40
2018-07-02T00:58:24.018Z,100133.67
2018-07-02T01:00:29.308Z,100134.80
2018-07-02T01:02:34.691Z,100135.73
2018-07-02T01:04:40.010Z,100137.18
2018-07-02T01:06:45.388Z,100137.66
2018-07-02T01:08:50.768Z,100144.97
2018-07-02T01:13:00.175Z,100141.48
2018-07-02T01:15:05.716Z,100134.94
2018-07-02T01:17:11.018Z,100140.39
2018-07-02T01:19:16.309Z,100141.87
2018-07-02T01:21:21.592Z,100142.72
2018-07-02T01:23:26.870Z,100152.53
2018-07-02T01:25:32.175Z,100145.26
2018-07-02T01:27:37.466Z,100146.13
2018-07-02T01:29:42.779Z,100145.19
2018-07-02T01:31:48.105Z,100151.75
2018-07-02T01:33:53.041Z,100159.86
2018-07-02T01:35:58.446Z,100164.82
2018-07-02T01:38:03.800Z,100166.30
2018-07-02T01:40:08.799Z,100176.59
2018-07-02T01:42:14.060Z,100170.90
2018-07-02T01:44:19.385Z,100165.35
2018-07-02T01:46:24.707Z,100163.29
2018-07-02T01:48:29.996Z,100158.34
2018-07-02T01:50:35.252Z,100169.23
2018-07-02T01:52:40.556Z,100174.45
2018-07-02T01:54:45.928Z,100172.06
2018-07-02T01:56:51.581Z,100172.17
2018-07-02T01:58:56.900Z,100173.14
2018-07-02T02:01:02.204Z,100178.09
2018-07-02T02:03:07.544Z,100176.44
2018-07-02T02:05:12.837Z,100169.27
2018-07-02T02:07:18.155Z,100169.27
2018-07-02T02:09:23.488Z,100168.93
2018-07-02T02:11:28.782Z,100153.55
2018-07-02T02:13:34.094Z,100155.00
2018-07-02T02:15:39.366Z,100152.00
2018-07-02T02:17:44.675Z,100156.23
2018-07-02T02:19:49.986Z,100155.86
2018-07-02T02:21:55.271Z,100156.49
2018-07-02T02:24:00.888Z,100158.19
2018-07-02T02:26:06.606Z,100154.80
2018-07-02T02:28:11.905Z,100162.05
2018-07-02T02:30:17.254Z,100160.94
2018-07-02T02:32:22.555Z,100154.03
2018-07-02T02:34:27.819Z,100153.94
2018-07-02T02:36:33.140Z,100155.37
2018-07-02T02:38:38.452Z,100152.37
2018-07-02T02:40:43.777Z,100162.66
2018-07-02T02:42:49.051Z,100166.17
2018-07-02T02:44:54.360Z,100161.55
2018-07-02T02:47:00.416Z,100163.27
2018-07-02T02:49:06.098Z,100164.00
2018-07-02T02:51:11.464Z,100162.30
2018-07-02T02:53:16.734Z,100163.41
2018-07-02T02:55:22.072Z,100161.83
2018-07-02T02:57:27.140Z,100157.61
2018-07-02T02:59:32.364Z,100163.05
2018-07-02T03:01:37.664Z,100156.51
2018-07-02T03:03:43.013Z,100158.31
2018-07-02T03:05:48.371Z,100165.59
2018-07-02T03:07:53.686Z,100163.16
2018-07-02T03:09:58.964Z,100158.95
2018-07-02T03:12:04.253Z,100155.33
2018-07-02T03:14:09.262Z,100151.93
2018-07-02T03:16:14.522Z,100157.84
2018-07-02T03:18:19.836Z,100164.16
2018-07-02T03:20:25.210Z,100157.36
2018-07-02T03:22:30.484Z,100158.57
2018-07-02T03:24:35.791Z,100158.34
2018-07-02T03:26:41.207Z,100166.91
2018-07-02T03:28:46.466Z,100163.29
2018-07-02T03:30:51.770Z,100167.64
2018-07-02T03:32:57.076Z,100172.22
2018-07-02T03:35:02.364Z,100167.48
2018-07-02T03:37:07.718Z,100172.44
2018-07-02T03:39:13.548Z,100178.23
2018-07-02T03:41:18.866Z,100181.38
2018-07-02T03:43:24.246Z,100185.47
2018-07-02T03:45:29.592Z,100181.11
2018-07-02T03:47:34.924Z,100184.50
2018-07-02T03:49:40.124Z,100180.28
2018-07-02T03:51:45.035Z,100183.27
2018-07-02T03:53:50.360Z,100185.07
2018-07-02T03:55:56.573Z,100183.99
2018-07-02T03:58:01.603Z,100183.14
2018-07-02T04:00:06.916Z,100180.59
2018-07-02T04:02:12.279Z,100178.92
2018-07-02T04:04:17.574Z,100175.41
2018-07-02T04:06:23.129Z,100177.59
2018-07-02T04:08:28.527Z,100183.77
2018-07-02T04:10:33.863Z,100192.55
2018-07-02T04:12:39.235Z,100190.88
2018-07-02T04:14:44.561Z,100192.21
2018-07-02T04:16:49.874Z,100193.65
2018-07-02T04:19:02.662Z,100187.59
2018-07-02T04:21:07.971Z,100184.70
2018-07-02T04:23:13.264Z,100186.25
2018-07-02T04:25:18.606Z,100186.49
2018-07-02T04:27:23.890Z,100180.80
2018-07-02T04:29:29.227Z,100194.46
2018-07-02T04:31:34.624Z,100190.11
2018-07-02T04:33:40.046Z,100186.37
2018-07-02T04:35:45.523Z,100185.63
2018-07-02T04:37:51.177Z,100185.73
2018-07-02T04:39:56.703Z,100181.27
2018-07-02T04:42:02.085Z,100179.60
2018-07-02T04:44:07.919Z,100184.91
2018-07-02T04:46:19.900Z,100177.77
2018-07-02T04:48:25.197Z,100185.73
2018-07-02T04:50:30.962Z,100190.56
2018-07-02T04:52:36.254Z,100192.74
2018-07-02T04:54:42.198Z,100189.61
2018-07-02T04:56:47.535Z,100176.70
2018-07-02T04:58:52.854Z,100180.80
2018-07-02T05:00:58.168Z,100183.00
2018-07-02T05:03:03.509Z,100184.23
2018-07-02T05:05:08.840Z,100182.65
2018-07-02T05:07:14.161Z,100180.59
2018-07-02T05:09:19.523Z,100181.34
2018-07-02T05:11:24.846Z,100183.03
2018-07-02T05:13:30.346Z,100178.09
2018-07-02T05:15:35.645Z,100183.03
2018-07-02T05:17:40.934Z,100187.50
2018-07-02T05:19:46.245Z,100190.53
2018-07-02T05:21:51.556Z,100185.44
2018-07-02T05:23:56.883Z,100191.50
2018-07-02T05:26:02.299Z,100186.08
2018-07-02T05:28:07.581Z,100187.89
2018-07-02T05:30:12.874Z,100195.51
2018-07-02T05:32:18.173Z,100206.19
2018-07-02T05:34:23.478Z,100197.85
2018-07-02T05:36:28.819Z,100199.89
2018-07-02T05:38:34.387Z,100198.23
2018-07-02T05:40:39.677Z,100208.88
2018-07-02T05:42:45.013Z,100206.07
2018-07-02T05:44:50.339Z,100204.63
2018-07-02T05:46:55.675Z,100205.23
2018-07-02T05:49:01.174Z,100199.69
2018-07-02T05:51:06.577Z,100200.53
2018-07-02T05:53:11.627Z,100206.45
2018-07-02T05:55:16.817Z,100208.86
2018-07-02T05:57:22.146Z,100212.14
2018-07-02T05:59:27.496Z,100210.08
2018-07-02T06:01:32.817Z,100204.98
2018-07-02T06:03:38.146Z,100209.97
2018-07-02T06:05:43.489Z,100206.57
2018-07-02T06:07:49.040Z,100212.48
2018-07-02T06:09:54.373Z,100214.66
2018-07-02T06:11:59.771Z,100216.72
2018-07-02T06:14:05.605Z,100218.35
2018-07-02T06:16:10.959Z,100213.48
2018-07-02T06:18:15.952Z,100213.73
2018-07-02T06:20:21.182Z,100210.95
2018-07-02T06:22:26.549Z,100212.98
2018-07-02T06:24:31.865Z,100213.55
2018-07-02T06:26:37.199Z,100204.19
2018-07-02T06:28:42.546Z,100206.27
2018-07-02T06:30:47.946Z,100205.05
2018-07-02T06:32:53.496Z,100207.03
2018-07-02T06:34:58.843Z,100207.36
2018-07-02T06:37:04.172Z,100204.98
2018-07-02T06:39:11.046Z,100195.33
2018-07-02T06:41:16.531Z,100200.38
2018-07-02T06:43:21.968Z,100199.02
2018-07-02T06:45:27.323Z,100212.52
2018-07-02T06:47:32.770Z,100219.77
2018-07-02T06:49:38.092Z,100214.48
2018-07-02T06:51:43.503Z,100211.88
2018-07-02T06:53:48.822Z,100223.34
2018-07-02T06:55:54.163Z,100215.68
2018-07-02T06:57:59.616Z,100218.53
2018-07-02T07:00:06.447Z,100222.91
2018-07-02T07:02:11.844Z,100223.39
2018-07-02T07:04:17.140Z,100221.19
2018-07-02T07:06:22.640Z,100221.14
2018-07-02T07:08:27.974Z,100224.59
2018-07-02T07:10:33.324Z,100224.08
2018-07-02T07:12:38.644Z,100230.06
2018-07-02T07:14:43.958Z,100229.99
2018-07-02T07:16:49.319Z,100225.52
2018-07-02T07:18:54.611Z,100226.06
2018-07-02T07:20:59.916Z,100228.39
2018-07-02T07:23:05.511Z,100226.36
2018-07-02T07:25:10.783Z,100222.95
2018-07-02T07:27:16.127Z,100222.56
2018-07-02T07:29:21.476Z,100227.48
2018-07-02T07:31:26.851Z,100223.03
2018-07-02T07:33:32.352Z,100221.02
2018-07-02T07:35:37.680Z,100214.47
2018-07-02T07:37:43.064Z,100215.95
2018-07-02T07:39:48.445Z,100214.52
2018-07-02T07:41:53.796Z,100221.50
2018-07-02T07:43:59.224Z,100223.92
2018-07-02T07:46:05.599Z,100207.77
2018-07-02T07:48:10.919Z,100214.14
2018-07-02T07:50:16.352Z,100214.78
2018-07-02T07:52:21.739Z,100210.16
2018-07-02T07:54:27.078Z,100218.83
2018-07-02T07:56:32.494Z,100219.01
2018-07-02T07:58:37.828Z,100209.38
2018-07-02T08:00:43.286Z,100213.80
2018-07-02T08:02:48.885Z,100215.55
2018-07-02T08:04:54.212Z,100214.14
2018-07-02T08:06:59.602Z,100209.58
2018-07-02T08:09:07.698Z,100210.66
2018-07-02T08:11:13.177Z,100218.52
2018-07-02T08:13:18.675Z,100210.88
2018-07-02T08:15:24.010Z,100206.85
2018-07-02T08:17:29.395Z,100200.17
2018-07-02T08:19:34.776Z,100197.28
2018-07-02T08:21:41.224Z,100212.90
2018-07-02T08:23:46.564Z,100198.42
2018-07-02T08:25:51.957Z,100207.64
2018-07-02T08:27:57.327Z,100200.38
2018-07-02T08:30:02.696Z,100209.91
2018-07-02T08:32:08.069Z,100207.70
2018-07-02T08:34:13.486Z,100205.16
2018-07-02T08:36:19.358Z,100192.87
2018-07-02T08:38:24.729Z,100197.73
2018-07-02T08:40:30.102Z,100197.20
2018-07-02T08:42:35.602Z,100189.31
2018-07-02T08:44:41.037Z,100190.61
2018-07-02T08:46:46.590Z,100187.27
2018-07-02T08:48:52.036Z,100192.09
2018-07-02T08:50:57.339Z,100195.11
2018-07-02T08:53:02.750Z,100189.87
2018-07-02T08:55:08.169Z,100187.30
2018-07-02T08:57:13.459Z,100188.78
2018-07-02T08:59:18.765Z,100182.72
2018-07-02T09:01:24.142Z,100181.38
2018-07-02T09:03:29.527Z,100171.48
2018-07-02T09:05:35.131Z,100168.34
2018-07-02T09:07:40.516Z,100179.13
2018-07-02T09:09:45.684Z,100182.48
2018-07-02T09:11:51.546Z,100174.77
2018-07-02T09:13:56.877Z,100175.61
2018-07-02T09:16:02.239Z,100166.41
2018-07-02T09:18:07.576Z,100171.30
2018-07-02T09:20:13.012Z,100177.52
2018-07-02T09:22:18.463Z,100175.34
2018-07-02T09:24:23.832Z,100167.47
2018-07-02T09:26:29.233Z,100159.58
2018-07-02T09:28:34.610Z,100178.39
2018-07-02T09:30:39.980Z,100177.93
2018-07-02T09:32:45.323Z,100169.88
2018-07-02T09:34:50.638Z,100179.63
2018-07-02T09:36:56.011Z,100171.88
2018-07-02T09:39:01.335Z,100176.10
2018-07-02T09:41:06.687Z,100180.83
2018-07-02T09:43:12.044Z,100175.95
2018-07-02T09:45:17.683Z,100171.58
2018-07-02T09:47:23.038Z,100175.27
2018-07-02T09:49:28.441Z,100175.61
2018-07-02T09:51:34.115Z,100172.62
2018-07-02T09:53:39.548Z,100175.96
2018-07-02T09:55:44.910Z,100169.28
2018-07-02T09:57:50.488Z,100181.56
2018-07-02T09:59:55.965Z,100181.25
2018-07-02T10:02:01.526Z,100174.38
2018-07-02T10:04:06.855Z,100175.38
2018-07-02T10:06:12.173Z,100183.10
2018-07-02T10:08:17.640Z,100186.48
2018-07-02T10:10:22.977Z,100184.98
2018-07-02T10:12:28.501Z,100179.45
2018-07-02T10:14:33.822Z,100180.94
2018-07-02T10:16:39.140Z,100187.32
2018-07-02T10:18:44.492Z,100184.31
2018-07-02T10:20:49.866Z,100184.66
2018-07-02T10:22:55.236Z,100183.97
2018-07-02T10:25:00.560Z,100180.78
2018-07-02T10:27:06.156Z,100181.81
2018-07-02T10:29:11.590Z,100171.55
2018-07-02T10:31:16.967Z,100171.89
2018-07-02T10:33:22.363Z,100172.88
2018-07-02T10:35:27.753Z,100176.77
2018-07-02T10:37:33.099Z,100174.56
2018-07-02T10:39:38.518Z,100174.56
2018-07-02T10:41:43.871Z,100165.70
2018-07-02T10:43:49.319Z,100169.89
2018-07-02T10:45:54.648Z,100178.30
2018-07-02T10:48:00.035Z,100173.94
2018-07-02T10:50:05.473Z,100171.25
2018-07-02T10:52:10.814Z,100166.86
2018-07-02T10:54:16.185Z,100180.00
2018-07-02T10:56:21.575Z,100172.91
2018-07-02T10:58:26.902Z,100165.18
2018-07-02T11:00:32.197Z,100156.91
2018-07-02T11:02:37.592Z,100165.17
2018-07-02T11:04:42.895Z,100167.00
2018-07-02T11:06:48.219Z,100157.42
2018-07-02T11:08:53.577Z,100168.37
2018-07-02T11:10:58.911Z,100162.97
2018-07-02T11:13:10.233Z,100160.42
2018-07-02T11:15:15.580Z,100165.83
2018-07-02T11:17:20.650Z,100162.27
2018-07-02T11:19:25.945Z,100170.19
2018-07-02T11:21:30.978Z,100169.83
2018-07-02T11:23:36.252Z,100164.28
2018-07-02T11:25:41.966Z,100163.58
2018-07-02T11:27:47.282Z,100165.61
2018-07-02T11:29:52.640Z,100167.14
2018-07-02T11:31:58.112Z,100162.61
2018-07-02T11:34:03.573Z,100173.19
2018-07-02T11:36:08.925Z,100163.59
2018-07-02T11:38:14.290Z,100159.19
2018-07-02T11:40:19.757Z,100152.63
2018-07-02T11:42:25.267Z,100162.20
2018-07-02T11:44:31.960Z,100158.34
2018-07-02T11:46:37.290Z,100164.41
2018-07-02T11:48:43.029Z,100160.51
2018-07-02T11:50:48.579Z,100153.10
2018-07-02T11:52:54.366Z,100159.48
2018-07-02T11:54:59.410Z,100152.07
2018-07-02T11:57:04.724Z,100152.72
2018-07-02T11:59:09.841Z,100151.70
2018-07-02T12:01:15.131Z,100167.55
2018-07-02T12:03:20.493Z,100151.68
2018-07-02T12:05:25.906Z,100147.81
2018-07-02T12:07:31.222Z,100147.30
2018-07-02T12:09:36.700Z,100152.84
2018-07-02T12:11:42.532Z,100153.68
2018-07-02T12:13:47.889Z,100147.62
2018-07-02T12:15:53.223Z,100145.40
2018-07-02T12:17:58.571Z,100149.27
2018-07-02T12:20:04.528Z,100151.61
2018-07-02T12:22:09.894Z,100144.36
2018-07-02T12:24:15.241Z,100134.76
2018-07-02T12:26:20.557Z,100132.73
2018-07-02T12:28:25.927Z,100139.31
2018-07-02T12:30:31.346Z,100141.84
2018-07-02T12:32:39.638Z,100136.92
2018-07-02T12:34:45.200Z,100142.68
2018-07-02T12:36:54.109Z,100139.14
2018-07-02T12:38:59.432Z,100144.50
2018-07-02T12:41:04.817Z,100130.15
2018-07-02T12:43:10.218Z,100127.95
2018-07-02T12:45:15.612Z,100133.15
2018-07-02T12:47:20.997Z,100132.78
2018-07-02T12:49:26.367Z,100133.45
2018-07-02T12:51:31.812Z,100134.59
2018-07-02T12:53:37.193Z,100120.73
2018-07-02T12:55:42.488Z,100114.29
2018-07-02T12:57:47.916Z,100111.05
2018-07-02T12:59:53.239Z,100111.34
2018-07-02T13:01:59.508Z,100115.05
2018-07-02T13:04:04.957Z,100114.67
2018-07-02T13:06:10.447Z,100110.28
2018-07-02T13:08:15.950Z,100113.48
2018-07-02T13:10:21.334Z,100109.56
2018-07-02T13:12:26.620Z,100116.30
2018-07-02T13:14:31.953Z,100114.15
2018-07-02T13:16:37.674Z,100111.25
2018-07-02T13:18:43.108Z,100106.19
2018-07-02T13:20:48.515Z,100098.76
2018-07-02T13:22:53.831Z,100104.16
2018-07-02T13:24:59.175Z,100101.96
2018-07-02T13:27:04.607Z,100089.11
2018-07-02T13:29:10.090Z,100092.09
2018-07-02T13:31:15.499Z,100093.09
2018-07-02T13:33:20.901Z,100085.45
2018-07-02T13:35:26.276Z,100085.62
2018-07-02T13:37:31.661Z,100072.41
2018-07-02T13:39:37.143Z,100066.11
2018-07-02T13:41:42.593Z,100074.16
2018-07-02T13:43:47.890Z,100078.38
2018-07-02T13:45:53.283Z,100067.70
2018-07-02T13:47:58.348Z,100067.34
2018-07-02T13:50:03.689Z,100064.77
2018-07-02T13:52:09.065Z,100073.36
2018-07-02T13:54:14.562Z,100072.46
2018-07-02T13:56:19.912Z,100077.33
2018-07-02T13:58:25.380Z,100066.35
2018-07-02T14:00:30.795Z,100077.16
2018-07-02T14:02:36.194Z,100070.73
2018-07-02T14:04:41.636Z,100073.23
2018-07-02T14:06:47.061Z,100083.02
2018-07-02T14:08:52.452Z,100075.75
2018-07-02T14:10:57.784Z,100067.14
2018-07-02T14:13:03.184Z,100073.38
2018-07-02T14:15:09.613Z,100066.75
2018-07-02T14:17:14.972Z,100065.22
2018-07-02T14:19:20.378Z,100070.30
2018-07-02T14:21:25.733Z,100075.70
2018-07-02T14:23:31.181Z,100069.94
2018-07-02T14:25:36.555Z,100077.32
2018-07-02T14:27:41.880Z,100066.34
2018-07-02T14:29:47.291Z,100060.03
2018-07-02T14:31:52.641Z,100062.67
2018-07-02T14:33:58.282Z,100066.38
2018-07-02T14:36:04.028Z,100062.95
2018-07-02T14:38:09.398Z,100077.06
2018-07-02T14:40:14.760Z,100070.58
2018-07-02T14:42:20.309Z,100066.16
2018-07-02T14:44:25.740Z,100074.21
2018-07-02T14:46:31.081Z,100066.43
2018-07-02T14:48:36.393Z,100055.44
2018-07-02T14:50:41.765Z,100060.16
2018-07-02T14:52:47.189Z,100053.22
2018-07-02T14:54:52.685Z,100052.82
2018-07-02T14:56:58.269Z,100052.97
2018-07-02T14:59:03.847Z,100056.63
2018-07-02T15:01:09.372Z,100055.42
2018-07-02T15:03:14.724Z,100052.00
2018-07-02T15:05:19.755Z,100051.16
2018-07-02T15:07:25.203Z,100050.46
2018-07-02T15:09:30.712Z,100053.61
2018-07-02T15:11:38.809Z,100044.80
2018-07-02T15:13:44.171Z,100048.67
2018-07-02T15:15:49.553Z,100045.76
2018-07-02T15:17:54.951Z,100046.60
2018-07-02T15:20:00.319Z,100050.47
2018-07-02T15:22:05.746Z,100048.09
2018-07-02T15:24:11.202Z,100039.98
2018-07-02T15:26:16.592Z,100045.91
2018-07-02T15:28:22.023Z,100047.26
2018-07-02T15:30:27.440Z,100048.94
2018-07-02T15:32:32.911Z,100043.86
2018-07-02T15:34:38.273Z,100049.38
2018-07-02T15:36:43.695Z,100046.49
2018-07-02T15:38:49.064Z,100044.12
2018-07-02T15:40:54.430Z,100048.80
2018-07-02T15:42:59.776Z,100045.91
2018-07-02T15:45:05.208Z,100043.02
2018-07-02T15:47:10.660Z,100039.26
2018-07-02T15:49:16.054Z,100039.41
2018-07-02T15:51:21.579Z,100054.28
2018-07-02T15:53:26.973Z,100053.59
2018-07-02T15:55:32.468Z,100055.23
2018-07-02T15:57:37.909Z,100049.31
2018-07-02T15:59:43.321Z,100047.52
2018-07-02T16:01:48.658Z,100047.63
2018-07-02T16:03:53.981Z,100042.22
2018-07-02T16:05:59.351Z,100038.38
2018-07-02T16:08:04.855Z,100033.59
2018-07-02T16:10:10.283Z,100036.63
2018-07-02T16:12:15.990Z,100037.47
2018-07-02T16:14:21.379Z,100035.93
2018-07-02T16:16:26.733Z,100031.03
2018-07-02T16:18:32.119Z,100035.71
2018-07-02T16:20:37.512Z,100035.53
2018-07-02T16:22:42.915Z,100027.08
2018-07-02T16:24:48.283Z,100033.34
2018-07-02T16:26:53.616Z,100019.30
2018-07-02T16:28:59.006Z,100027.92
2018-07-02T16:31:04.432Z,100032.67
2018-07-02T16:33:10.032Z,100030.80
2018-07-02T16:35:15.453Z,100020.31
2018-07-02T16:37:20.967Z,100013.55
2018-07-02T16:39:26.302Z,100020.14
2018-07-02T16:41:31.732Z,100021.38
2018-07-02T16:43:37.247Z,100022.19
2018-07-02T16:45:42.649Z,100026.64
2018-07-02T16:47:48.140Z,100025.80
2018-07-02T16:49:53.495Z,100022.99
2018-07-02T16:51:58.959Z,100025.22
2018-07-02T16:54:04.660Z,100022.73
2018-07-02T16:56:10.203Z,100029.50
2018-07-02T16:58:15.645Z,100035.27
2018-07-02T17:00:21.015Z,100033.08
2018-07-02T17:02:26.467Z,100033.81
2018-07-02T17:04:31.837Z,100036.19
2018-07-02T17:06:37.294Z,100042.80
2018-07-02T17:08:42.718Z,100039.47
2018-07-02T17:10:48.172Z,100045.25
2018-07-02T17:12:53.566Z,100043.45
2018-07-02T17:14:58.976Z,100043.64
2018-07-02T17:17:04.369Z,100037.60
2018-07-02T17:19:09.774Z,100037.97
2018-07-02T17:21:15.144Z,100044.73
2018-07-02T17:23:20.561Z,100046.08
2018-07-02T17:25:27.099Z,100044.55
2018-07-02T17:27:32.429Z,100042.35
2018-07-02T17:29:37.828Z,100042.53
2018-07-02T17:31:43.250Z,100046.30
2018-07-02T17:33:48.654Z,100042.60
2018-07-02T17:35:53.975Z,100039.45
2018-07-02T17:37:59.365Z,100045.88
2018-07-02T17:40:05.213Z,100053.66
2018-07-02T17:42:10.548Z,100050.00
2018-07-02T17:44:15.916Z,100051.53
2018-07-02T17:46:21.249Z,100055.44
2018-07-02T17:48:26.703Z,100053.28
2018-07-02T17:50:32.150Z,100054.00
2018-07-02T17:52:37.562Z,100057.06
2018-07-02T17:54:43.976Z,100053.91
2018-07-02T17:56:49.425Z,100059.71
2018-07-02T17:58:54.832Z,100053.70
2018-07-02T18:00:59.910Z,100050.02
2018-07-02T18:03:05.319Z,100048.54
2018-07-02T18:05:10.364Z,100045.39
2018-07-02T18:07:15.734Z,100042.87
2018-07-02T18:09:21.109Z,100044.57
2018-07-02T18:11:26.622Z,100037.37
2018-07-02T18:13:32.014Z,100046.70
2018-07-02T18:15:37.044Z,100041.98
2018-07-02T18:17:42.724Z,100044.53
2018-07-02T18:19:48.133Z,100047.30
2018-07-02T18:21:53.622Z,100049.51
2018-07-02T18:23:59.126Z,100041.97
2018-07-02T18:26:04.559Z,100056.33
2018-07-02T18:28:09.995Z,100058.75
2018-07-02T18:30:15.429Z,100054.58
2018-07-02T18:32:20.540Z,100061.50
2018-07-02T18:34:28.421Z,100057.00
2018-07-02T18:36:33.864Z,100056.51
2018-07-02T18:38:39.248Z,100058.42
2018-07-02T18:40:44.685Z,100056.78
2018-07-02T18:42:50.114Z,100064.42
2018-07-02T18:44:55.607Z,100065.81
2018-07-02T18:47:03.478Z,100067.72
2018-07-02T18:49:10.391Z,100068.06
2018-07-02T18:51:15.748Z,100067.27
2018-07-02T18:53:21.198Z,100063.57
2018-07-02T18:55:26.689Z,100071.50
2018-07-02T18:57:32.105Z,100071.21
2018-07-02T18:59:37.521Z,100063.16
2018-07-02T19:01:42.906Z,100067.76
2018-07-02T19:03:48.351Z,100076.56
2018-07-02T19:05:53.821Z,100073.41
2018-07-02T19:07:59.269Z,100077.80
2018-07-02T19:10:05.690Z,100082.38
2018-07-02T19:12:11.156Z,100079.38
2018-07-02T19:14:21.247Z,100080.27
2018-07-02T19:16:27.380Z,100082.66
2018-07-02T19:18:32.791Z,100079.66
2018-07-02T19:20:38.310Z,100081.85
2018-07-02T19:22:43.644Z,100083.70
2018-07-02T19:24:49.015Z,100082.56
2018-07-02T19:26:54.523Z,100087.48
2018-07-02T19:29:00.004Z,100092.90
2018-07-02T19:31:05.458Z,100095.42
2018-07-02T19:33:10.817Z,100093.77
2018-07-02T19:35:16.246Z,100086.55
2018-07-02T19:37:21.593Z,100090.42
2018-07-02T19:39:26.996Z,100086.91
2018-07-02T19:41:32.413Z,100096.03
2018-07-02T19:43:37.493Z,100096.91
2018-07-02T19:45:42.818Z,100109.05
2018-07-02T19:47:48.201Z,100107.19
2018-07-02T19:49:53.773Z,100109.91
2018-07-02T19:51:59.233Z,100116.13
2018-07-02T19:54:05.083Z,100121.00
2018-07-02T19:56:10.503Z,100125.56
2018-07-02T19:58:15.930Z,100128.94
2018-07-02T20:00:21.339Z,100135.34
2018-07-02T20:02:26.724Z,100142.59
2018-07-02T20:04:32.285Z,100144.12
2018-07-02T20:06:37.746Z,100143.80
2018-07-02T20:08:43.123Z,100145.81
2018-07-02T20:10:49.252Z,100140.95
2018-07-02T20:12:54.684Z,100144.16
2018-07-02T20:15:00.112Z,100152.23
2018-07-02T20:17:05.862Z,100158.47
2018-07-02T20:19:11.338Z,100155.06
2018-07-02T20:21:16.817Z,100152.53
2018-07-02T20:23:22.365Z,100152.54
2018-07-02T20:25:27.773Z,100158.58
2018-07-02T20:27:34.190Z,100155.23
2018-07-02T20:29:39.914Z,100155.55
2018-07-02T20:31:45.376Z,100167.67
2018-07-02T20:33:50.688Z,100167.83
2018-07-02T20:35:55.710Z,100174.91
2018-07-02T20:38:01.159Z,100178.25
2018-07-02T20:40:06.552Z,100172.72
2018-07-02T20:42:12.017Z,100179.09
2018-07-02T20:44:17.365Z,100184.82
2018-07-02T20:46:22.783Z,100183.29
2018-07-02T20:48:28.432Z,100189.52
2018-07-02T20:50:33.815Z,100194.86
2018-07-02T20:52:39.206Z,100199.42
2018-07-02T20:54:44.511Z,100201.42
2018-07-02T20:56:49.902Z,100199.58
2018-07-02T20:58:55.507Z,100200.23
2018-07-02T21:01:01.157Z,100203.56
2018-07-02T21:03:06.537Z,100205.38
2018-07-02T21:05:12.090Z,100199.98
2018-07-02T21:07:17.416Z,100202.64
2018-07-02T21:09:22.785Z,100200.94
2018-07-02T21:11:28.182Z,100203.27
2018-07-02T21:13:33.695Z,100196.70
2018-07-02T21:15:39.112Z,100202.22
2018-07-02T21:17:44.419Z,100203.70
2018-07-02T21:19:49.856Z,100210.41
2018-07-02T21:21:55.201Z,100207.91
2018-07-02T21:24:00.578Z,100206.86
2018-07-02T21:26:06.150Z,100209.19
2018-07-02T21:28:11.468Z,100207.98
2018-07-02T21:30:16.808Z,100211.61
2018-07-02T21:32:22.175Z,100211.09
2018-07-02T21:34:27.526Z,100213.58
2018-07-02T21:36:33.092Z,100218.09
2018-07-02T21:38:38.496Z,100215.88
2018-07-02T21:40:43.875Z,100211.84
2018-07-02T21:42:49.218Z,100212.63
2018-07-02T21:44:54.601Z,100202.48
2018-07-02T21:47:00.025Z,100222.61
2018-07-02T21:49:05.512Z,100216.20
2018-07-02T21:51:10.874Z,100209.06
2018-07-02T21:53:16.252Z,100206.15
2018-07-02T21:55:21.652Z,100212.63
2018-07-02T21:57:27.030Z,100205.34
2018-07-02T21:59:32.430Z,100210.47
2018-07-02T22:01:37.886Z,100214.11
2018-07-02T22:03:43.225Z,100207.55
2018-07-02T22:05:48.334Z,100204.62
2018-07-02T22:07:53.659Z,100208.77
2018-07-02T22:09:59.000Z,100209.37
2018-07-02T22:12:04.673Z,100207.64
2018-07-02T22:14:09.698Z,100207.60
2018-07-02T22:16:14.967Z,100204.50
2018-07-02T22:18:20.367Z,100208.31
2018-07-02T22:20:25.661Z,100206.63
2018-07-02T22:22:30.972Z,100204.96
2018-07-02T22:24:37.145Z,100202.42
2018-07-02T22:26:42.499Z,100198.54
2018-07-02T22:28:47.802Z,100204.71
2018-07-02T22:30:53.724Z,100205.30
2018-07-02T22:32:59.053Z,100211.12
2018-07-02T22:35:04.658Z,100211.08
2018-07-02T22:37:10.109Z,100206.84
2018-07-02T22:39:16.447Z,100210.02
2018-07-02T22:41:21.828Z,100219.21
2018-07-02T22:43:27.203Z,100217.16
2018-07-02T22:45:33.341Z,100214.80
2018-07-02T22:47:38.710Z,100214.58
2018-07-02T22:49:44.069Z,100219.59
2018-07-02T22:51:49.348Z,100221.94
2018-07-02T22:53:54.694Z,100229.41
2018-07-02T22:56:03.524Z,100228.33
2018-07-02T22:58:08.796Z,100227.41
2018-07-02T23:00:15.773Z,100217.63
2018-07-02T23:02:21.098Z,100217.58
2018-07-02T23:04:26.406Z,100213.98
2018-07-02T23:06:31.700Z,100213.22
2018-07-02T23:08:37.031Z,100218.52
2018-07-02T23:10:42.495Z,100226.33
2018-07-02T23:12:47.531Z,100223.96
2018-07-02T23:14:52.781Z,100222.70
2018-07-02T23:16:58.091Z,100225.69
2018-07-02T23:19:03.391Z,100214.76
2018-07-02T23:21:08.747Z,100212.44
2018-07-02T23:23:14.083Z,100215.11
2018-07-02T23:25:19.436Z,100215.11
2018-07-02T23:27:24.759Z,100216.59
2018-07-02T23:29:30.112Z,100208.38
2018-07-02T23:31:35.483Z,100207.80
2018-07-02T23:33:40.826Z,100212.41
2018-07-02T23:35:46.143Z,100216.64
2018-07-02T23:37:52.347Z,100219.25
2018-07-02T23:39:57.717Z,100218.35
2018-07-02T23:42:03.093Z,100212.42
2018-07-02T23:44:08.423Z,100213.34
2018-07-02T23:46:13.780Z,100212.21
2018-07-02T23:48:19.123Z,100209.87
2018-07-02T23:50:24.662Z,100211.58
2018-07-02T23:52:30.015Z,100201.44
2018-07-02T23:54:35.402Z,100206.00